Time;durP1;ratioP1;P1;durP2;ratioP2;P2;SDS_P1;SDS_P2;PMS_P1;PMS_P2;Temp;Humidity;BMP_temperature;BMP_pressure;BME280_temperature;BME280_humidity;BME280_pressure;Samples;Min_cycle;Max_cycle;Signal;HPM_P1;HPM_P2
2021/05/31 00:00:15;;;;;;;2.80;1.77;;;12.70;89.40;;;;;;5050425;28;20857;-66
2021/05/31 00:02:42;;;;;;;2.50;1.53;;;12.70;88.60;;;;;;5051001;28;20482;-66
2021/05/31 00:05:09;;;;;;;2.77;1.47;;;12.50;90.80;;;;;;5050520;28;20444;-66
2021/05/31 00:07:35;;;;;;;2.77;1.40;;;12.40;93.90;;;;;;5050208;28;20783;-66
2021/05/31 00:10:02;;;;;;;2.50;1.83;;;12.20;94.40;;;;;;5050277;28;20500;-67
2021/05/31 00:12:29;;;;;;;4.33;1.90;;;12.30;92.60;;;;;;5050232;28;20895;-66
2021/05/31 00:14:57;;;;;;;5.03;1.60;;;12.10;95.10;;;;;;5050167;28;20460;-66
2021/05/31 00:17:25;;;;;;;3.50;1.97;;;12.00;93.90;;;;;;5050225;28;20439;-66
2021/05/31 00:19:52;;;;;;;2.70;1.50;;;12.00;95.60;;;;;;5050223;28;20570;-68
2021/05/31 00:22:20;;;;;;;2.60;2.20;;;11.90;93.60;;;;;;5050075;28;20467;-67
2021/05/31 00:24:46;;;;;;;2.37;1.57;;;11.90;95.90;;;;;;5049573;28;20446;-68
2021/05/31 00:27:14;;;;;;;6.10;2.20;;;11.80;95.10;;;;;;5048800;28;20448;-68
2021/05/31 00:29:42;;;;;;;3.10;1.60;;;11.80;96.90;;;;;;5050244;28;20502;-67
2021/05/31 00:32:08;;;;;;;3.43;1.90;;;11.50;97.00;;;;;;5049996;28;20463;-67
2021/05/31 00:34:35;;;;;;;2.93;1.67;;;11.60;98.60;;;;;;5049418;28;20440;-67
2021/05/31 00:37:02;;;;;;;3.50;1.80;;;11.40;96.00;;;;;;5049963;28;21122;-67
2021/05/31 00:39:28;;;;;;;2.40;1.83;;;11.20;96.70;;;;;;5049859;28;20558;-66
2021/05/31 00:41:54;;;;;;;1.70;1.40;;;11.00;96.30;;;;;;5049860;28;20850;-66
2021/05/31 00:44:22;;;;;;;5.07;2.13;;;11.30;99.40;;;;;;5049315;28;20447;-66
2021/05/31 00:46:50;;;;;;;2.90;1.67;;;11.00;98.80;;;;;;5049596;28;20447;-66
2021/05/31 00:49:18;;;;;;;3.20;1.50;;;11.10;98.80;;;;;;5049875;28;20447;-68
2021/05/31 00:51:44;;;;;;;3.87;1.70;;;11.00;98.00;;;;;;5049810;28;20838;-68
2021/05/31 00:54:11;;;;;;;3.87;1.47;;;10.90;98.80;;;;;;5049121;28;20490;-68
2021/05/31 00:56:38;;;;;;;2.63;1.47;;;10.80;99.70;;;;;;5049581;28;20447;-68
2021/05/31 00:59:04;;;;;;;3.87;1.87;;;10.70;99.70;;;;;;5049784;28;20486;-68
2021/05/31 01:01:30;;;;;;;3.27;2.10;;;10.60;99.70;;;;;;5049500;28;20529;-68
2021/05/31 01:03:57;;;;;;;3.67;1.70;;;10.60;99.70;;;;;;5049203;28;20446;-68
2021/05/31 01:06:30;;;;;;;2.80;1.60;;;10.50;99.70;;;;;;5049856;28;20447;-68
2021/05/31 01:09:07;;;;;;;2.33;1.40;;;10.40;99.70;;;;;;5049539;28;20978;-68
2021/05/31 01:11:47;;;;;;;2.07;1.30;;;10.30;99.70;;;;;;5050070;28;20524;-68
2021/05/31 01:14:20;;;;;;;1.60;1.20;;;10.20;99.70;;;;;;5052959;28;20448;-68
2021/05/31 01:16:52;;;;;;;3.67;1.93;;;10.10;99.70;;;;;;5053538;28;20933;-68
2021/05/31 01:19:36;;;;;;;3.67;1.97;;;10.10;99.70;;;;;;5053485;28;20534;-68
2021/05/31 01:22:05;;;;;;;3.10;1.53;;;10.10;99.70;;;;;;5053488;28;20872;-68
2021/05/31 01:24:54;;;;;;;1.83;1.50;;;10.00;99.70;;;;;;5052776;28;20439;-68
2021/05/31 01:27:33;;;;;;;2.90;1.60;;;9.90;99.70;;;;;;5052027;28;20450;-68
2021/05/31 01:30:06;;;;;;;3.10;1.63;;;9.90;99.70;;;;;;5053477;28;20444;-68
2021/05/31 01:32:36;;;;;;;3.20;1.60;;;9.90;99.70;;;;;;5052685;28;20467;-67
2021/05/31 01:35:06;;;;;;;4.23;1.83;;;9.80;99.70;;;;;;5053159;28;20450;-68
2021/05/31 01:37:35;;;;;;;2.90;1.90;;;9.70;99.70;;;;;;5052815;28;20447;-68
2021/05/31 01:40:05;;;;;;;3.07;1.80;;;9.70;99.70;;;;;;5053195;28;20486;-68
2021/05/31 01:42:31;;;;;;;2.00;1.40;;;9.70;99.70;;;;;;5052479;28;20981;-67
2021/05/31 01:44:59;;;;;;;2.90;1.67;;;9.70;99.70;;;;;;5053021;28;20504;-68
2021/05/31 01:47:29;;;;;;;2.73;1.37;;;9.70;99.70;;;;;;5052843;28;20455;-68
2021/05/31 01:49:56;;;;;;;3.40;1.87;;;9.70;99.70;;;;;;5052909;28;20439;-68
2021/05/31 01:52:23;;;;;;;2.83;1.70;;;9.60;99.70;;;;;;5052806;28;20459;-68
2021/05/31 01:54:50;;;;;;;2.67;1.70;;;9.50;99.70;;;;;;5052321;28;20443;-68
2021/05/31 01:57:17;;;;;;;2.57;1.90;;;9.60;99.70;;;;;;5052507;28;20439;-68
2021/05/31 01:59:44;;;;;;;2.33;1.60;;;9.50;99.70;;;;;;5052734;28;20475;-68
2021/05/31 02:02:10;;;;;;;2.90;1.93;;;9.40;99.70;;;;;;5052682;28;21127;-68
2021/05/31 02:04:38;;;;;;;1.90;1.43;;;9.40;99.70;;;;;;5052067;28;20942;-67
2021/05/31 02:07:04;;;;;;;3.93;1.77;;;9.40;99.70;;;;;;5052479;28;20516;-68
2021/05/31 02:09:30;;;;;;;3.00;1.30;;;9.30;99.70;;;;;;5052560;28;20440;-68
2021/05/31 02:12:06;;;;;;;2.10;1.43;;;9.30;99.70;;;;;;5052675;28;20467;-68
2021/05/31 02:14:42;;;;;;;2.40;1.50;;;9.30;99.70;;;;;;5052087;28;20534;-68
2021/05/31 02:17:16;;;;;;;2.23;1.80;;;9.30;99.70;;;;;;5052551;28;20451;-67
2021/05/31 02:19:45;;;;;;;3.50;1.60;;;9.20;99.70;;;;;;5052550;28;20513;-67
2021/05/31 02:22:14;;;;;;;2.70;1.60;;;9.30;99.70;;;;;;5052367;28;20466;-67
2021/05/31 02:24:41;;;;;;;1.97;1.60;;;9.20;99.70;;;;;;5050746;28;20470;-68
2021/05/31 02:27:07;;;;;;;3.10;1.60;;;9.20;99.70;;;;;;5051039;28;20440;-67
2021/05/31 02:29:34;;;;;;;2.07;1.40;;;9.20;99.70;;;;;;5052236;28;20482;-67
2021/05/31 02:32:00;;;;;;;2.63;1.70;;;9.10;99.70;;;;;;5052315;28;20479;-67
2021/05/31 02:34:29;;;;;;;2.83;1.63;;;9.10;99.70;;;;;;5051626;28;20447;-68
2021/05/31 02:36:57;;;;;;;5.77;2.47;;;9.10;99.70;;;;;;5052039;28;20448;-67
2021/05/31 02:39:23;;;;;;;3.20;1.63;;;9.10;99.70;;;;;;5052052;28;20475;-67
2021/05/31 02:41:50;;;;;;;4.30;1.60;;;9.10;99.70;;;;;;5052066;28;20887;-67
2021/05/31 02:44:17;;;;;;;3.23;1.70;;;9.00;99.70;;;;;;5051467;28;20440;-67
2021/05/31 02:46:43;;;;;;;5.50;2.00;;;9.00;99.70;;;;;;5051897;28;20440;-67
2021/05/31 02:49:09;;;;;;;3.30;1.40;;;8.90;99.70;;;;;;5051779;28;21027;-67
2021/05/31 02:51:38;;;;;;;2.57;1.53;;;8.90;99.70;;;;;;5051710;28;20476;-67
2021/05/31 02:54:06;;;;;;;2.33;1.53;;;8.90;99.70;;;;;;5051132;28;20451;-67
2021/05/31 02:56:33;;;;;;;6.07;1.57;;;9.00;99.70;;;;;;5051770;28;20447;-67
2021/05/31 02:58:59;;;;;;;3.13;1.47;;;8.90;99.70;;;;;;5051648;28;20499;-67
2021/05/31 03:01:25;;;;;;;3.13;1.73;;;8.80;99.70;;;;;;5051441;28;20899;-67
2021/05/31 03:03:51;;;;;;;2.20;1.60;;;8.80;99.70;;;;;;5050844;28;20440;-67
2021/05/31 03:06:18;;;;;;;3.50;1.60;;;8.80;99.70;;;;;;5051353;28;20443;-67
2021/05/31 03:08:44;;;;;;;3.03;1.53;;;8.80;99.70;;;;;;5051319;28;20456;-67
2021/05/31 03:11:11;;;;;;;2.70;1.40;;;8.60;99.70;;;;;;5051348;28;20463;-67
2021/05/31 03:13:37;;;;;;;3.00;1.63;;;8.60;99.70;;;;;;5050512;28;20444;-67
2021/05/31 03:16:04;;;;;;;1.90;1.40;;;8.60;99.70;;;;;;5051300;28;20443;-67
2021/05/31 03:18:30;;;;;;;3.10;1.80;;;8.60;99.70;;;;;;5050847;28;20446;-65
2021/05/31 03:20:56;;;;;;;3.60;1.87;;;8.50;99.70;;;;;;5051023;28;20482;-67
2021/05/31 03:23:22;;;;;;;3.10;1.30;;;8.60;99.70;;;;;;5050668;28;21000;-67
2021/05/31 03:25:49;;;;;;;2.57;1.67;;;8.50;99.70;;;;;;5049874;28;21415;-67
2021/05/31 03:28:16;;;;;;;5.17;1.90;;;8.40;99.70;;;;;;5050752;28;20447;-67
2021/05/31 03:30:42;;;;;;;2.50;1.50;;;8.40;99.70;;;;;;5051081;28;20522;-67
2021/05/31 03:33:09;;;;;;;4.60;1.80;;;8.40;99.70;;;;;;5050279;28;20520;-67
2021/05/31 03:35:35;;;;;;;2.37;1.67;;;8.40;99.70;;;;;;5050356;28;20451;-66
2021/05/31 03:38:01;;;;;;;2.53;1.50;;;8.40;99.70;;;;;;5050591;28;20439;-68
2021/05/31 03:40:27;;;;;;;2.13;1.53;;;8.40;99.70;;;;;;5050726;28;20491;-65
2021/05/31 03:42:55;;;;;;;2.60;1.90;;;8.60;99.70;;;;;;5050082;28;20529;-65
2021/05/31 03:45:23;;;;;;;2.60;1.70;;;8.80;99.70;;;;;;5050632;28;20451;-67
2021/05/31 03:47:50;;;;;;;3.20;1.50;;;9.00;99.70;;;;;;5050471;28;20447;-67
2021/05/31 03:50:16;;;;;;;3.07;1.77;;;9.10;99.70;;;;;;5050690;28;20469;-67
2021/05/31 03:52:44;;;;;;;3.67;1.57;;;9.50;99.70;;;;;;5050112;28;20888;-67
2021/05/31 03:55:11;;;;;;;4.13;1.43;;;9.50;99.70;;;;;;5050515;28;20474;-67
2021/05/31 03:57:38;;;;;;;2.63;1.50;;;9.80;99.70;;;;;;5050337;28;20467;-67
2021/05/31 04:00:06;;;;;;;2.63;1.57;;;9.70;99.70;;;;;;5050469;28;20475;-67
2021/05/31 04:02:33;;;;;;;2.57;1.50;;;9.80;99.70;;;;;;5049786;28;20574;-66
2021/05/31 04:05:00;;;;;;;3.40;1.63;;;9.80;99.70;;;;;;5050274;28;20961;-67
2021/05/31 04:12:54;;;;;;;2.50;1.43;;;9.70;99.70;;;;;;5050094;28;20478;-67
2021/05/31 04:15:20;;;;;;;2.73;2.00;;;10.00;99.70;;;;;;5050135;28;20436;-67
2021/05/31 04:17:48;;;;;;;5.53;1.90;;;9.90;99.70;;;;;;5050060;28;20452;-67
2021/05/31 04:20:15;;;;;;;3.80;2.00;;;9.90;99.70;;;;;;5050118;28;20539;-67
2021/05/31 04:22:42;;;;;;;3.87;1.63;;;9.70;99.70;;;;;;5049618;28;20463;-67
2021/05/31 04:25:10;;;;;;;3.40;1.80;;;10.00;99.70;;;;;;5050143;28;20448;-67
2021/05/31 04:27:36;;;;;;;3.03;2.03;;;10.00;99.70;;;;;;5048590;28;20456;-67
2021/05/31 04:30:04;;;;;;;2.53;1.60;;;10.10;99.70;;;;;;5050073;28;20939;-67
2021/05/31 04:32:30;;;;;;;3.30;1.57;;;10.30;99.70;;;;;;5050108;28;20463;-67
2021/05/31 04:34:58;;;;;;;2.70;1.80;;;10.10;99.70;;;;;;5049891;28;20502;-67
2021/05/31 04:37:25;;;;;;;3.10;1.77;;;10.00;99.70;;;;;;5050217;28;20439;-67
2021/05/31 04:39:52;;;;;;;2.13;1.57;;;10.00;99.70;;;;;;5049974;28;20483;-67
2021/05/31 04:42:18;;;;;;;3.83;1.80;;;10.00;99.70;;;;;;5049915;28;20471;-67
2021/05/31 04:44:44;;;;;;;3.30;1.90;;;10.00;99.70;;;;;;5049472;28;20871;-67
2021/05/31 04:47:11;;;;;;;3.93;2.30;;;10.40;99.70;;;;;;5051349;28;20803;-67
2021/05/31 04:49:37;;;;;;;3.23;1.67;;;10.70;99.70;;;;;;5054092;28;20436;-67
2021/05/31 04:52:05;;;;;;;4.27;2.10;;;10.70;99.70;;;;;;5054098;28;20904;-67
2021/05/31 04:54:31;;;;;;;3.50;1.97;;;10.70;99.70;;;;;;5053491;28;20957;-67
2021/05/31 04:56:58;;;;;;;3.23;1.70;;;10.70;99.70;;;;;;5053819;28;20451;-67
2021/05/31 04:59:24;;;;;;;4.80;2.23;;;10.80;99.70;;;;;;5053942;28;20476;-67
2021/05/31 05:01:50;;;;;;;5.17;2.17;;;10.70;99.70;;;;;;5053644;28;20831;-68
2021/05/31 05:04:16;;;;;;;4.83;2.00;;;10.60;99.70;;;;;;5053383;28;20453;-68
2021/05/31 05:06:43;;;;;;;3.40;2.00;;;10.50;99.70;;;;;;5053671;28;20450;-68
2021/05/31 05:09:10;;;;;;;4.50;2.13;;;10.60;99.70;;;;;;5054002;28;20451;-68
2021/05/31 05:11:37;;;;;;;4.37;2.10;;;10.70;99.70;;;;;;5053755;28;20500;-68
2021/05/31 05:14:03;;;;;;;3.40;1.80;;;10.90;99.70;;;;;;5053387;28;20447;-68
2021/05/31 05:16:29;;;;;;;4.10;1.93;;;11.00;99.70;;;;;;5053925;28;20470;-68
2021/05/31 05:18:56;;;;;;;3.17;1.80;;;11.10;99.70;;;;;;5053428;28;20455;-67
2021/05/31 05:21:22;;;;;;;3.13;2.00;;;11.20;99.70;;;;;;5053824;28;20577;-67
2021/05/31 05:23:49;;;;;;;4.80;1.87;;;11.70;99.70;;;;;;5053377;28;20440;-67
2021/05/31 05:26:18;;;;;;;5.80;2.10;;;12.00;99.70;;;;;;5052554;28;20925;-67
2021/05/31 05:28:45;;;;;;;2.90;1.73;;;12.20;98.00;;;;;;5053448;28;20451;-67
2021/05/31 05:31:11;;;;;;;3.57;1.90;;;12.40;98.10;;;;;;5053503;28;20471;-67
2021/05/31 05:33:42;;;;;;;3.73;2.20;;;12.50;97.20;;;;;;5052719;28;20488;-66
2021/05/31 05:36:15;;;;;;;5.77;1.83;;;12.50;99.70;;;;;;5053424;28;20964;-67
2021/05/31 05:39:03;;;;;;;2.40;1.70;;;12.60;96.80;;;;;;5053338;28;21019;-67
2021/05/31 05:41:37;;;;;;;4.00;1.83;;;12.70;98.30;;;;;;5053195;28;20458;-67
2021/05/31 05:49:40;;;;;;;2.47;1.80;;;13.10;95.60;;;;;;5029776;28;20431;-67
2021/05/31 05:52:06;;;;;;;2.97;1.93;;;13.30;94.80;;;;;;5053041;28;20483;-67
2021/05/31 05:54:33;;;;;;;4.17;1.93;;;13.20;97.40;;;;;;5052400;28;20431;-67
2021/05/31 05:57:00;;;;;;;5.20;1.83;;;13.30;94.50;;;;;;5052579;28;20450;-67
2021/05/31 05:59:26;;;;;;;2.93;1.97;;;13.30;96.50;;;;;;5052328;28;20473;-67
2021/05/31 06:01:53;;;;;;;4.17;2.00;;;13.40;97.20;;;;;;5053607;28;20475;-67
2021/05/31 06:04:19;;;;;;;3.50;2.20;;;13.50;95.30;;;;;;5052184;28;20521;-67
2021/05/31 06:06:46;;;;;;;4.30;2.00;;;13.70;93.00;;;;;;5052517;28;20974;-67
2021/05/31 06:09:15;;;;;;;2.90;1.87;;;14.00;92.00;;;;;;5052505;28;20974;-65
2021/05/31 06:11:41;;;;;;;4.20;2.00;;;14.10;91.60;;;;;;5052420;28;20464;-65
2021/05/31 06:14:09;;;;;;;4.97;2.20;;;14.20;90.60;;;;;;5052143;28;20443;-66
2021/05/31 06:16:35;;;;;;;3.30;1.80;;;14.30;93.10;;;;;;5052409;28;20443;-67
2021/05/31 06:19:02;;;;;;;3.60;1.80;;;14.40;93.80;;;;;;5052414;28;20435;-67
2021/05/31 06:21:28;;;;;;;3.70;2.03;;;14.50;94.80;;;;;;5052304;28;20903;-68
2021/05/31 06:23:54;;;;;;;3.30;2.27;;;15.30;89.60;;;;;;5051725;28;20444;-68
2021/05/31 06:26:21;;;;;;;3.40;2.03;;;16.10;89.20;;;;;;5051189;28;20665;-67
2021/05/31 06:28:47;;;;;;;4.10;2.50;;;17.10;84.80;;;;;;5052169;28;20466;-67
2021/05/31 06:31:15;;;;;;;3.67;2.10;;;17.50;83.80;;;;;;5052178;28;20994;-66
2021/05/31 06:33:41;;;;;;;3.20;2.10;;;18.00;83.10;;;;;;5051611;28;20439;-67
2021/05/31 06:36:09;;;;;;;4.70;1.97;;;18.60;81.00;;;;;;5052416;28;20462;-66
2021/05/31 06:38:36;;;;;;;3.43;2.40;;;19.40;76.20;;;;;;5052145;28;20880;-66
2021/05/31 06:41:04;;;;;;;3.10;2.10;;;19.90;76.60;;;;;;5052115;28;20559;-66
2021/05/31 06:43:30;;;;;;;3.20;1.97;;;20.20;73.80;;;;;;5051378;28;20196;-66
2021/05/31 06:45:58;;;;;;;4.03;2.33;;;20.40;76.20;;;;;;5051959;28;20201;-66
2021/05/31 06:48:26;;;;;;;3.10;1.90;;;20.80;73.40;;;;;;5051779;28;20207;-66
2021/05/31 06:50:53;;;;;;;2.40;1.75;;;20.80;73.90;;;;;;5051745;28;20208;-67
2021/05/31 06:53:19;;;;;;;2.83;2.03;;;21.70;70.50;;;;;;5050928;28;20748;-66
2021/05/31 06:55:45;;;;;;;2.55;1.90;;;21.70;69.80;;;;;;5051709;28;20208;-67
2021/05/31 06:58:12;;;;;;;2.60;2.10;;;21.60;70.50;;;;;;5051418;28;20295;-66
2021/05/31 07:00:38;;;;;;;2.58;1.92;;;21.40;70.10;;;;;;5051678;28;20227;-67
2021/05/31 07:03:05;;;;;;;2.47;1.90;;;21.60;71.10;;;;;;5050942;28;20232;-66
2021/05/31 07:05:32;;;;;;;4.90;2.40;;;21.70;70.40;;;;;;5051344;28;20594;-66
2021/05/31 07:07:59;;;;;;;2.60;1.87;;;21.50;70.30;;;;;;5051456;28;20208;-66
2021/05/31 07:10:27;;;;;;;3.07;2.00;;;21.20;70.20;;;;;;5050735;28;20682;-66
2021/05/31 07:12:54;;;;;;;2.77;1.97;;;21.20;70.70;;;;;;5050987;28;20815;-67
2021/05/31 07:15:21;;;;;;;3.30;2.10;;;20.90;71.90;;;;;;5051164;28;20504;-67
2021/05/31 07:17:48;;;;;;;2.63;1.83;;;20.40;71.90;;;;;;5051028;28;20458;-67
2021/05/31 07:20:15;;;;;;;2.50;1.90;;;20.00;73.60;;;;;;5051236;28;20578;-67
2021/05/31 07:22:44;;;;;;;3.73;2.10;;;19.60;74.60;;;;;;5050545;28;20470;-67
2021/05/31 07:25:13;;;;;;;2.93;1.83;;;19.30;75.50;;;;;;5051003;28;20972;-67
2021/05/31 07:27:40;;;;;;;3.10;2.10;;;19.10;74.90;;;;;;5048733;28;20530;-67
2021/05/31 07:30:08;;;;;;;3.57;1.93;;;19.10;74.30;;;;;;5051152;28;20497;-67
2021/05/31 07:32:35;;;;;;;3.30;1.87;;;19.00;72.40;;;;;;5050297;28;20525;-66
2021/05/31 07:35:01;;;;;;;2.10;1.60;;;18.80;71.80;;;;;;5050959;28;20452;-66
2021/05/31 07:37:27;;;;;;;3.60;1.80;;;18.70;74.50;;;;;;5050646;28;20447;-66
2021/05/31 07:39:55;;;;;;;2.10;1.67;;;18.70;74.70;;;;;;5050939;28;20483;-67
2021/05/31 07:42:21;;;;;;;2.97;2.07;;;18.60;71.50;;;;;;5050731;28;20467;-67
2021/05/31 07:44:47;;;;;;;4.33;1.80;;;18.20;74.00;;;;;;5050106;28;20471;-66
2021/05/31 07:47:13;;;;;;;3.50;1.80;;;18.10;74.80;;;;;;5050452;28;20470;-68
2021/05/31 07:49:40;;;;;;;2.67;1.60;;;18.00;73.90;;;;;;5050546;28;20498;-68
2021/05/31 07:52:18;;;;;;;2.40;1.63;;;17.80;76.00;;;;;;5050559;28;20983;-66
2021/05/31 07:54:45;;;;;;;3.30;1.93;;;17.50;75.80;;;;;;5049986;28;20452;-68
2021/05/31 07:57:13;;;;;;;2.40;1.50;;;17.70;73.70;;;;;;5050353;28;20443;-68
2021/05/31 07:59:40;;;;;;;2.83;1.67;;;17.70;72.20;;;;;;5050372;28;20484;-68
2021/05/31 08:02:07;;;;;;;2.87;1.60;;;17.60;72.90;;;;;;5050272;28;20572;-68
2021/05/31 08:04:33;;;;;;;3.07;1.87;;;17.40;72.50;;;;;;5049833;28;20452;-68
2021/05/31 08:07:01;;;;;;;3.03;1.67;;;17.40;73.00;;;;;;5050242;28;20444;-68
2021/05/31 08:09:27;;;;;;;2.50;1.87;;;17.20;72.40;;;;;;5050279;28;20451;-68
2021/05/31 08:11:53;;;;;;;4.20;1.77;;;17.30;74.70;;;;;;5050175;28;21485;-68
2021/05/31 08:14:21;;;;;;;3.17;1.90;;;17.30;73.80;;;;;;5049650;28;20856;-68
2021/05/31 08:16:48;;;;;;;3.30;1.90;;;17.20;72.60;;;;;;5050046;28;20450;-68
2021/05/31 08:19:15;;;;;;;3.30;1.67;;;17.20;72.60;;;;;;5049718;28;20505;-68
2021/05/31 08:21:42;;;;;;;3.10;1.90;;;17.30;71.70;;;;;;5050245;28;20468;-68
2021/05/31 08:24:08;;;;;;;4.83;1.90;;;17.20;71.20;;;;;;5049476;28;20501;-68
2021/05/31 08:26:37;;;;;;;5.43;1.80;;;17.10;72.50;;;;;;5047810;28;20497;-68
2021/05/31 08:29:04;;;;;;;2.63;1.70;;;17.20;74.90;;;;;;5050129;28;20455;-68
2021/05/31 08:31:32;;;;;;;2.40;1.50;;;17.10;73.50;;;;;;5049957;28;20455;-68
2021/05/31 08:33:58;;;;;;;2.67;1.83;;;17.00;72.50;;;;;;5049567;28;20799;-68
2021/05/31 08:36:25;;;;;;;3.33;2.13;;;16.90;73.30;;;;;;5050013;28;20585;-68
2021/05/31 08:38:57;;;;;;;2.83;1.80;;;16.90;74.80;;;;;;5049625;28;20451;-67
2021/05/31 08:41:23;;;;;;;2.10;1.60;;;17.00;73.00;;;;;;5049824;28;20543;-68
2021/05/31 08:43:49;;;;;;;2.43;1.60;;;17.00;74.10;;;;;;5049320;28;20463;-68
2021/05/31 08:46:16;;;;;;;4.40;2.63;;;17.20;73.40;;;;;;5049868;28;20958;-67
2021/05/31 08:48:44;;;;;;;3.30;2.07;;;17.30;72.00;;;;;;5049844;28;20509;-67
2021/05/31 08:51:10;;;;;;;5.70;2.00;;;17.40;71.50;;;;;;5049829;28;20463;-68
2021/05/31 08:53:37;;;;;;;3.30;2.10;;;17.30;73.80;;;;;;5049278;28;20498;-68
2021/05/31 08:56:04;;;;;;;2.60;1.70;;;17.20;71.70;;;;;;5050101;28;20454;-68
2021/05/31 08:58:30;;;;;;;2.73;1.67;;;17.30;72.80;;;;;;5049846;28;20447;-68
2021/05/31 09:00:56;;;;;;;3.07;1.70;;;17.40;72.30;;;;;;5049811;28;20483;-68
2021/05/31 09:03:23;;;;;;;3.10;1.93;;;17.30;73.00;;;;;;5049230;28;20505;-68
2021/05/31 09:05:51;;;;;;;3.23;2.47;;;17.10;73.50;;;;;;5049827;28;20454;-68
2021/05/31 09:08:20;;;;;;;2.20;1.73;;;17.30;74.70;;;;;;5049449;28;20459;-67
2021/05/31 09:10:48;;;;;;;3.23;1.90;;;17.30;73.40;;;;;;5049769;28;20502;-68
2021/05/31 09:13:27;;;;;;;3.93;1.80;;;17.30;73.10;;;;;;5049075;28;20447;-67
2021/05/31 09:16:04;;;;;;;3.40;1.73;;;17.40;72.60;;;;;;5049669;28;20444;-68
2021/05/31 09:18:30;;;;;;;3.27;2.10;;;17.40;73.60;;;;;;5049317;28;20447;-67
2021/05/31 09:20:58;;;;;;;3.00;1.70;;;17.50;74.10;;;;;;5049531;28;20475;-67
2021/05/31 09:23:35;;;;;;;2.33;1.60;;;17.60;73.80;;;;;;5049163;28;20443;-67
2021/05/31 09:26:04;;;;;;;2.70;1.80;;;17.70;72.00;;;;;;5047821;28;20893;-67
2021/05/31 09:28:30;;;;;;;5.30;2.00;;;17.80;72.80;;;;;;5049342;28;20479;-67
2021/05/31 09:30:56;;;;;;;2.10;1.60;;;18.10;72.30;;;;;;5049639;28;20471;-67
2021/05/31 09:33:23;;;;;;;2.63;1.80;;;18.10;69.60;;;;;;5050585;28;20505;-67
2021/05/31 09:35:50;;;;;;;4.20;1.93;;;18.90;71.10;;;;;;5052947;28;20525;-68
2021/05/31 09:38:18;;;;;;;3.87;1.90;;;19.60;70.30;;;;;;5052825;28;20501;-68
2021/05/31 09:40:52;;;;;;;2.90;1.70;;;19.50;70.50;;;;;;5052980;28;20536;-67
2021/05/31 09:43:19;;;;;;;3.10;2.10;;;20.10;70.60;;;;;;5052309;28;20454;-68
2021/05/31 09:45:48;;;;;;;3.60;1.80;;;19.90;67.50;;;;;;5052987;28;20890;-68
2021/05/31 09:48:14;;;;;;;2.70;2.10;;;20.30;69.70;;;;;;5052740;28;20447;-68
2021/05/31 09:50:41;;;;;;;3.80;2.03;;;21.40;68.10;;;;;;5053027;28;20443;-68
2021/05/31 09:53:09;;;;;;;2.80;2.00;;;21.40;67.10;;;;;;5052349;28;20459;-68
2021/05/31 09:55:38;;;;;;;5.40;2.10;;;21.90;65.30;;;;;;5052745;28;20443;-69
2021/05/31 09:58:09;;;;;;;3.83;2.10;;;21.90;65.70;;;;;;5052570;28;20443;-68
2021/05/31 10:00:36;;;;;;;4.50;2.30;;;22.00;67.20;;;;;;5052710;28;20570;-68
2021/05/31 10:03:21;;;;;;;3.87;2.17;;;22.00;65.90;;;;;;5052085;28;20498;-66
2021/05/31 10:05:54;;;;;;;2.83;1.90;;;22.10;65.40;;;;;;5053008;28;20200;-68
2021/05/31 10:11:06;;;;;;;3.47;2.13;;;21.90;65.00;;;;;;5052481;28;20442;-68
2021/05/31 10:13:33;;;;;;;3.67;2.20;;;21.70;66.50;;;;;;5051941;28;20439;-68
2021/05/31 10:16:01;;;;;;;2.97;2.00;;;21.00;67.10;;;;;;5052485;28;20939;-68
2021/05/31 10:18:29;;;;;;;4.70;2.23;;;21.00;67.70;;;;;;5052210;28;20448;-66
2021/05/31 10:20:57;;;;;;;3.70;2.00;;;20.80;67.00;;;;;;5052379;28;20479;-68
2021/05/31 10:23:24;;;;;;;3.97;1.97;;;20.40;69.20;;;;;;5051851;28;20483;-66
2021/05/31 10:25:56;;;;;;;3.20;1.83;;;20.50;67.60;;;;;;5050204;28;20573;-68
2021/05/31 10:28:27;;;;;;;3.53;2.00;;;20.20;68.50;;;;;;5052129;28;20535;-68
2021/05/31 10:30:59;;;;;;;4.50;2.10;;;20.00;68.50;;;;;;5052032;28;20451;-68
2021/05/31 10:33:25;;;;;;;2.57;1.93;;;19.80;70.20;;;;;;5051432;28;20817;-68
2021/05/31 10:35:53;;;;;;;2.87;1.90;;;19.50;68.40;;;;;;5051977;28;20969;-68
2021/05/31 10:38:21;;;;;;;2.50;1.80;;;19.20;70.50;;;;;;5051787;28;20458;-68
2021/05/31 10:40:49;;;;;;;3.27;2.03;;;19.40;72.10;;;;;;5051888;28;20487;-67
2021/05/31 10:43:19;;;;;;;3.07;2.13;;;19.20;70.70;;;;;;5051277;28;20444;-68
2021/05/31 10:45:48;;;;;;;3.30;2.20;;;18.90;71.40;;;;;;5050770;28;20447;-68
2021/05/31 10:48:15;;;;;;;2.73;2.10;;;19.00;71.40;;;;;;5051566;28;20450;-68
2021/05/31 10:50:44;;;;;;;3.77;1.90;;;18.90;72.60;;;;;;5051781;28;20457;-68
2021/05/31 10:53:22;;;;;;;3.33;1.90;;;18.90;70.80;;;;;;5051003;28;20479;-68
2021/05/31 10:55:52;;;;;;;4.67;2.27;;;18.80;71.10;;;;;;5051499;28;20509;-68
2021/05/31 10:58:21;;;;;;;3.50;1.80;;;18.90;71.80;;;;;;5051273;28;20444;-68
2021/05/31 11:00:56;;;;;;;3.37;2.10;;;19.30;71.90;;;;;;5051263;28;20490;-68
2021/05/31 11:03:22;;;;;;;4.03;2.37;;;19.10;71.20;;;;;;5050982;28;20446;-68
2021/05/31 11:05:51;;;;;;;3.90;2.07;;;19.00;70.50;;;;;;5051440;28;20450;-68
2021/05/31 11:08:25;;;;;;;2.73;1.70;;;18.90;69.20;;;;;;5051084;28;20451;-68
2021/05/31 11:10:56;;;;;;;5.27;2.43;;;19.00;70.00;;;;;;5051218;28;20442;-68
2021/05/31 11:13:23;;;;;;;3.97;1.87;;;18.90;69.90;;;;;;5050558;28;20444;-68
2021/05/31 11:16:04;;;;;;;3.20;2.10;;;18.60;69.80;;;;;;5051246;28;20664;-68
2021/05/31 11:18:39;;;;;;;2.63;1.80;;;18.60;70.30;;;;;;5051045;28;20703;-68
2021/05/31 11:21:05;;;;;;;3.67;2.10;;;18.60;71.10;;;;;;5051084;28;20475;-68
2021/05/31 11:23:31;;;;;;;2.93;1.90;;;18.50;72.70;;;;;;5050359;28;20455;-67
2021/05/31 11:25:58;;;;;;;3.30;2.00;;;18.80;72.00;;;;;;5049021;28;20799;-68
2021/05/31 11:28:26;;;;;;;3.47;2.00;;;18.80;70.80;;;;;;5050747;28;20475;-68
2021/05/31 11:30:52;;;;;;;5.03;2.20;;;18.70;74.00;;;;;;5050900;28;20440;-67
2021/05/31 11:33:20;;;;;;;2.60;1.83;;;18.90;72.10;;;;;;5050311;28;20447;-68
2021/05/31 11:35:47;;;;;;;3.13;1.70;;;18.90;70.40;;;;;;5050955;28;20451;-67
2021/05/31 11:38:15;;;;;;;5.43;2.00;;;18.80;73.60;;;;;;5050504;28;20509;-67
2021/05/31 11:40:42;;;;;;;3.63;2.20;;;18.90;70.20;;;;;;5050661;28;20476;-68
2021/05/31 11:43:10;;;;;;;3.30;2.00;;;18.90;71.10;;;;;;5050099;28;20554;-68
2021/05/31 11:45:38;;;;;;;2.43;2.03;;;18.90;71.40;;;;;;5050579;28;20456;-68
2021/05/31 11:48:07;;;;;;;3.77;1.90;;;19.00;71.20;;;;;;5050394;28;20452;-67
2021/05/31 11:50:36;;;;;;;4.27;1.97;;;19.10;72.70;;;;;;5050546;28;20456;-68
2021/05/31 11:53:02;;;;;;;3.30;2.10;;;19.10;71.30;;;;;;5050080;28;20463;-68
2021/05/31 11:55:30;;;;;;;3.00;1.80;;;19.20;72.10;;;;;;5049921;28;20823;-68
2021/05/31 11:57:57;;;;;;;5.60;1.97;;;19.10;71.00;;;;;;5050210;28;20456;-68
2021/05/31 12:00:25;;;;;;;3.20;1.80;;;19.20;71.20;;;;;;5050464;28;20476;-68
2021/05/31 12:02:51;;;;;;;3.40;2.10;;;19.20;71.80;;;;;;5050946;28;20484;-68
2021/05/31 12:05:29;;;;;;;3.17;1.70;;;19.20;69.60;;;;;;5050341;28;20448;-68
2021/05/31 12:08:03;;;;;;;3.87;2.10;;;19.20;72.90;;;;;;5050103;28;20447;-68
2021/05/31 12:10:29;;;;;;;3.63;1.90;;;19.20;71.10;;;;;;5050266;28;20486;-68
2021/05/31 12:12:56;;;;;;;6.40;2.30;;;19.00;71.30;;;;;;5049689;28;20851;-68
2021/05/31 12:15:22;;;;;;;3.10;1.87;;;19.10;72.20;;;;;;5050172;28;20483;-67
2021/05/31 12:17:48;;;;;;;2.73;1.87;;;19.00;70.40;;;;;;5049817;28;20827;-67
2021/05/31 12:20:14;;;;;;;4.57;1.77;;;18.90;71.60;;;;;;5050035;28;20494;-68
2021/05/31 12:22:41;;;;;;;4.37;1.90;;;19.30;72.20;;;;;;5049576;28;20468;-67
2021/05/31 12:25:10;;;;;;;2.03;1.67;;;19.10;71.70;;;;;;5049990;28;20447;-67
2021/05/31 12:27:40;;;;;;;3.63;1.93;;;19.20;71.80;;;;;;5047583;28;20826;-68
2021/05/31 12:30:08;;;;;;;3.07;2.03;;;19.10;71.90;;;;;;5050004;28;20448;-68
2021/05/31 12:32:36;;;;;;;3.90;1.90;;;19.30;72.60;;;;;;5049330;28;21045;-67
2021/05/31 12:35:04;;;;;;;3.57;1.97;;;19.40;72.10;;;;;;5049940;28;20501;-68
2021/05/31 12:37:32;;;;;;;3.27;2.40;;;19.40;74.80;;;;;;5049727;28;20443;-68
2021/05/31 12:40:03;;;;;;;3.20;1.70;;;19.30;72.80;;;;;;5049969;28;20848;-68
2021/05/31 12:42:32;;;;;;;4.50;2.07;;;19.30;73.90;;;;;;5049788;28;20501;-68
2021/05/31 12:45:05;;;;;;;2.93;2.07;;;19.40;72.40;;;;;;5049827;28;20809;-67
2021/05/31 12:47:35;;;;;;;4.07;2.23;;;19.50;72.60;;;;;;5049565;28;20450;-67
2021/05/31 12:50:01;;;;;;;3.03;1.87;;;19.60;71.00;;;;;;5049816;28;20451;-67
2021/05/31 12:52:29;;;;;;;3.00;1.93;;;19.40;71.20;;;;;;5049666;28;20525;-68
2021/05/31 12:55:00;;;;;;;4.30;2.10;;;19.50;71.50;;;;;;5049601;28;20825;-68
2021/05/31 12:57:32;;;;;;;3.00;1.83;;;19.60;74.00;;;;;;5049620;28;20455;-68
2021/05/31 12:59:59;;;;;;;3.30;2.07;;;19.70;72.10;;;;;;5049768;28;20455;-68
2021/05/31 13:02:28;;;;;;;3.60;2.10;;;19.70;73.20;;;;;;5049622;28;20501;-68
2021/05/31 13:05:03;;;;;;;4.07;2.20;;;19.70;74.60;;;;;;5049156;28;20448;-68